sensor_id;sensor_type;location;lat;lon;timestamp;pressure;altitude;pressure_sealevel;temperature;humidity
48800;BME280;34611;47.964;7.982;2023-01-10T00:06:11;96609.28;;;11.52;68.99
48800;BME280;34611;47.964;7.982;2023-01-10T00:13:12;96625.72;;;11.53;69.08
48800;BME280;34611;47.964;7.982;2023-01-10T00:20:22;96629.25;;;11.52;69.12
48800;BME280;34611;47.964;7.982;2023-01-10T00:27:22;96636.94;;;11.53;68.94
48800;BME280;34611;47.964;7.982;2023-01-10T00:34:23;96658.75;;;11.52;69.05
48800;BME280;34611;47.964;7.982;2023-01-10T00:41:23;96678.59;;;11.53;68.89
48800;BME280;34611;47.964;7.982;2023-01-10T00:48:42;96709.00;;;11.53;69.20
48800;BME280;34611;47.964;7.982;2023-01-10T00:55:42;96720.38;;;11.52;69.01
48800;BME280;34611;47.964;7.982;2023-01-10T01:02:43;96739.44;;;11.52;69.10
48800;BME280;34611;47.964;7.982;2023-01-10T01:09:43;96758.47;;;11.53;69.16
48800;BME280;34611;47.964;7.982;2023-01-10T01:17:02;96775.03;;;11.52;69.18
48800;BME280;34611;47.964;7.982;2023-01-10T01:24:02;96796.72;;;11.52;69.11
48800;BME280;34611;47.964;7.982;2023-01-10T01:31:08;96807.94;;;11.53;69.20
48800;BME280;34611;47.964;7.982;2023-01-10T01:38:09;96836.69;;;11.51;69.21
48800;BME280;34611;47.964;7.982;2023-01-10T01:52:32;96871.34;;;11.52;69.23
48800;BME280;34611;47.964;7.982;2023-01-10T01:59:37;96898.22;;;11.52;69.17
48800;BME280;34611;47.964;7.982;2023-01-10T02:06:39;96903.56;;;11.51;68.97
48800;BME280;34611;47.964;7.982;2023-01-10T02:13:40;96922.59;;;11.51;69.06
48800;BME280;34611;47.964;7.982;2023-01-10T02:20:45;96945.22;;;11.51;69.25
48800;BME280;34611;47.964;7.982;2023-01-10T02:41:54;96966.03;;;11.51;69.04
48800;BME280;34611;47.964;7.982;2023-01-10T02:48:56;96985.91;;;11.52;69.19
48800;BME280;34611;47.964;7.982;2023-01-10T03:03:13;97005.09;;;11.51;69.06
48800;BME280;34611;47.964;7.982;2023-01-10T03:10:36;96990.41;;;11.50;69.04
48800;BME280;34611;47.964;7.982;2023-01-10T03:17:38;97010.31;;;11.51;68.86
48800;BME280;34611;47.964;7.982;2023-01-10T03:24:40;97019.91;;;11.50;69.14
48800;BME280;34611;47.964;7.982;2023-01-10T03:31:44;97029.47;;;11.50;69.21
48800;BME280;34611;47.964;7.982;2023-01-10T03:38:54;97046.75;;;11.51;69.14
48800;BME280;34611;47.964;7.982;2023-01-10T03:45:58;97058.94;;;11.50;68.95
48800;BME280;34611;47.964;7.982;2023-01-10T03:53:00;97077.16;;;11.50;69.16
48800;BME280;34611;47.964;7.982;2023-01-10T04:00:00;97094.53;;;11.50;69.17
48800;BME280;34611;47.964;7.982;2023-01-10T04:07:00;97094.53;;;11.50;69.14
48800;BME280;34611;47.964;7.982;2023-01-10T04:14:01;97094.53;;;11.50;68.96
48800;BME280;34611;47.964;7.982;2023-01-10T04:21:01;97109.22;;;11.51;69.00
48800;BME280;34611;47.964;7.982;2023-01-10T04:28:01;97104.97;;;11.50;68.99
48800;BME280;34611;47.964;7.982;2023-01-10T04:35:01;97113.63;;;11.50;69.06
48800;BME280;34611;47.964;7.982;2023-01-10T04:42:02;97129.25;;;11.50;69.03
48800;BME280;34611;47.964;7.982;2023-01-10T04:49:02;97140.59;;;11.49;69.21
48800;BME280;34611;47.964;7.982;2023-01-10T04:56:03;97144.97;;;11.49;68.99
48800;BME280;34611;47.964;7.982;2023-01-10T05:03:04;97156.22;;;11.49;69.03
48800;BME280;34611;47.964;7.982;2023-01-10T05:10:04;97170.03;;;11.50;69.14
48800;BME280;34611;47.964;7.982;2023-01-10T05:17:05;97177.03;;;11.49;69.20
48800;BME280;34611;47.964;7.982;2023-01-10T05:24:05;97191.84;;;11.49;68.99
48800;BME280;34611;47.964;7.982;2023-01-10T05:31:06;97207.34;;;11.50;69.13
48800;BME280;34611;47.964;7.982;2023-01-10T05:38:06;97206.50;;;11.50;69.17
48800;BME280;34611;47.964;7.982;2023-01-10T05:45:07;97199.66;;;11.49;68.99
48800;BME280;34611;47.964;7.982;2023-01-10T05:52:07;97214.31;;;11.50;69.18
48800;BME280;34611;47.964;7.982;2023-01-10T05:59:07;97213.47;;;11.49;69.07
48800;BME280;34611;47.964;7.982;2023-01-10T06:06:08;97217.88;;;11.49;69.06
48800;BME280;34611;47.964;7.982;2023-01-10T06:13:08;97223.06;;;11.49;69.13
48800;BME280;34611;47.964;7.982;2023-01-10T06:20:09;97241.31;;;11.49;69.11
48800;BME280;34611;47.964;7.982;2023-01-10T06:27:10;97237.88;;;11.48;69.04
48800;BME280;34611;47.964;7.982;2023-01-10T06:34:10;97265.56;;;11.49;68.91
48800;BME280;34611;47.964;7.982;2023-01-10T06:41:10;97288.16;;;11.49;69.12
48800;BME280;34611;47.964;7.982;2023-01-10T06:48:13;97274.31;;;11.48;69.18
48800;BME280;34611;47.964;7.982;2023-01-10T06:55:13;97288.97;;;11.49;69.06
48800;BME280;34611;47.964;7.982;2023-01-10T07:02:13;97324.63;;;11.49;69.17
48800;BME280;34611;47.964;7.982;2023-01-10T07:09:14;97328.19;;;11.48;68.99
48800;BME280;34611;47.964;7.982;2023-01-10T07:16:14;97337.63;;;11.49;69.00
48800;BME280;34611;47.964;7.982;2023-01-10T07:23:15;97351.59;;;11.48;69.08
48800;BME280;34611;47.964;7.982;2023-01-10T07:30:15;97353.25;;;11.49;69.20
48800;BME280;34611;47.964;7.982;2023-01-10T07:37:15;97349.00;;;11.48;69.16
48800;BME280;34611;47.964;7.982;2023-01-10T07:44:16;97354.06;;;11.49;68.95
48800;BME280;34611;47.964;7.982;2023-01-10T07:51:16;97382.84;;;11.48;69.19
48800;BME280;34611;47.964;7.982;2023-01-10T07:58:16;97410.63;;;11.47;69.13
48800;BME280;34611;47.964;7.982;2023-01-10T08:05:17;97419.31;;;11.48;69.08
48800;BME280;34611;47.964;7.982;2023-01-10T08:12:17;97421.06;;;11.47;69.10
48800;BME280;34611;47.964;7.982;2023-01-10T08:19:17;97434.91;;;11.48;69.19
48800;BME280;34611;47.964;7.982;2023-01-10T08:26:19;97432.31;;;11.48;69.08
48800;BME280;34611;47.964;7.982;2023-01-10T08:33:21;97441.88;;;11.47;69.08
48800;BME280;34611;47.964;7.982;2023-01-10T08:40:22;97445.34;;;11.48;69.09
48800;BME280;34611;47.964;7.982;2023-01-10T08:47:22;97459.28;;;11.47;69.07
48800;BME280;34611;47.964;7.982;2023-01-10T08:54:23;97448.06;;;11.46;69.16
48800;BME280;34611;47.964;7.982;2023-01-10T09:01:23;97459.28;;;11.47;69.12
48800;BME280;34611;47.964;7.982;2023-01-10T09:08:23;97465.31;;;11.47;69.04
48800;BME280;34611;47.964;7.982;2023-01-10T09:15:25;97484.38;;;11.48;69.14
48800;BME280;34611;47.964;7.982;2023-01-10T09:22:26;97493.94;;;11.47;69.11
48800;BME280;34611;47.964;7.982;2023-01-10T09:29:26;97496.56;;;11.47;69.00
48800;BME280;34611;47.964;7.982;2023-01-10T09:36:26;97506.97;;;11.47;68.99
48800;BME280;34611;47.964;7.982;2023-01-10T09:50:54;97513.94;;;11.47;69.18
48800;BME280;34611;47.964;7.982;2023-01-10T09:57:53;97520.94;;;11.46;69.17
48800;BME280;34611;47.964;7.982;2023-01-10T10:04:58;97516.66;;;11.45;69.01
48800;BME280;34611;47.964;7.982;2023-01-10T10:26:25;97532.19;;;11.47;69.07
48800;BME280;34611;47.964;7.982;2023-01-10T10:40:35;97536.56;;;11.46;69.19
48800;BME280;34611;47.964;7.982;2023-01-10T10:47:36;97533.00;;;11.47;68.97
48800;BME280;34611;47.964;7.982;2023-01-10T10:54:37;97522.72;;;11.46;69.04
48800;BME280;34611;47.964;7.982;2023-01-10T11:01:38;97526.97;;;11.47;69.17
48800;BME280;34611;47.964;7.982;2023-01-10T11:08:43;97517.97;;;11.51;69.51
48800;BME280;34611;47.964;7.982;2023-01-10T11:15:45;97525.19;;;11.47;69.28
48800;BME280;34611;47.964;7.982;2023-01-10T11:22:47;97521.75;;;11.47;69.35
48800;BME280;34611;47.964;7.982;2023-01-10T11:29:48;97520.94;;;11.46;69.17
48800;BME280;34611;47.964;7.982;2023-01-10T11:43:52;97502.34;;;11.51;69.49
48800;BME280;34611;47.964;7.982;2023-01-10T11:51:21;97497.50;;;11.58;69.23
48800;BME280;34611;47.964;7.982;2023-01-10T11:58:22;97500.00;;;11.48;69.24
48800;BME280;34611;47.964;7.982;2023-01-10T12:05:28;97484.50;;;11.46;69.19
48800;BME280;34611;47.964;7.982;2023-01-10T12:12:30;97481.06;;;11.46;69.47
48800;BME280;34611;47.964;7.982;2023-01-10T12:19:31;97474.91;;;11.47;69.25
48800;BME280;34611;47.964;7.982;2023-01-10T12:26:32;97460.44;;;11.54;69.20
48800;BME280;34611;47.964;7.982;2023-01-10T12:33:34;97448.63;;;11.50;69.42
48800;BME280;34611;47.964;7.982;2023-01-10T12:40:40;97440.13;;;11.48;69.46
48800;BME280;34611;47.964;7.982;2023-01-10T12:48:05;97448.88;;;11.47;69.35
48800;BME280;34611;47.964;7.982;2023-01-10T12:55:03;97422.84;;;11.47;69.09
48800;BME280;34611;47.964;7.982;2023-01-10T13:02:08;97419.41;;;11.46;69.39
48800;BME280;34611;47.964;7.982;2023-01-10T13:09:17;97413.38;;;11.46;69.35
48800;BME280;34611;47.964;7.982;2023-01-10T13:23:38;97392.56;;;11.46;69.20
48800;BME280;34611;47.964;7.982;2023-01-10T13:30:46;97384.75;;;11.46;69.20
48800;BME280;34611;47.964;7.982;2023-01-10T13:37:51;97378.69;;;11.45;69.38
48800;BME280;34611;47.964;7.982;2023-01-10T14:06:50;97362.13;;;11.46;69.06
48800;BME280;34611;47.964;7.982;2023-01-10T14:13:52;97359.53;;;11.46;69.09
48800;BME280;34611;47.964;7.982;2023-01-10T14:20:54;97368.16;;;11.47;69.31
48800;BME280;34611;47.964;7.982;2023-01-10T14:27:56;97374.34;;;11.46;69.24
48800;BME280;34611;47.964;7.982;2023-01-10T14:34:59;97368.28;;;11.45;69.18
48800;BME280;34611;47.964;7.982;2023-01-10T14:42:01;97360.59;;;11.44;69.25
48800;BME280;34611;47.964;7.982;2023-01-10T14:49:15;97349.22;;;11.45;69.24
48800;BME280;34611;47.964;7.982;2023-01-10T14:56:21;97347.44;;;11.45;69.21
48800;BME280;34611;47.964;7.982;2023-01-10T15:03:22;97332.69;;;11.46;69.10
48800;BME280;34611;47.964;7.982;2023-01-10T15:10:24;97313.59;;;11.45;69.34
48800;BME280;34611;47.964;7.982;2023-01-10T15:17:27;97310.19;;;11.45;69.29
48800;BME280;34611;47.964;7.982;2023-01-10T15:24:29;97292.78;;;11.45;69.08
48800;BME280;34611;47.964;7.982;2023-01-10T15:31:30;97298.00;;;11.45;69.17
48800;BME280;34611;47.964;7.982;2023-01-10T15:38:34;97284.16;;;11.45;69.20
48800;BME280;34611;47.964;7.982;2023-01-10T15:45:36;97280.72;;;11.44;69.09
48800;BME280;34611;47.964;7.982;2023-01-10T15:52:46;97284.97;;;11.45;69.01
48800;BME280;34611;47.964;7.982;2023-01-10T15:59:46;97278.13;;;11.44;69.27
48800;BME280;34611;47.964;7.982;2023-01-10T16:06:50;97278.00;;;11.46;69.20
48800;BME280;34611;47.964;7.982;2023-01-10T16:13:52;97275.53;;;11.44;69.19
48800;BME280;34611;47.964;7.982;2023-01-10T16:20:53;97285.81;;;11.46;69.20
48800;BME280;34611;47.964;7.982;2023-01-10T16:27:55;97285.94;;;11.44;69.22
48800;BME280;34611;47.964;7.982;2023-01-10T16:34:56;97272.09;;;11.44;69.15
48800;BME280;34611;47.964;7.982;2023-01-10T16:41:56;97273.75;;;11.45;69.29
48800;BME280;34611;47.964;7.982;2023-01-10T16:49:15;97268.53;;;11.45;69.23
48800;BME280;34611;47.964;7.982;2023-01-10T16:56:18;97263.31;;;11.45;69.10
48800;BME280;34611;47.964;7.982;2023-01-10T17:03:22;97258.13;;;11.45;69.04
48800;BME280;34611;47.964;7.982;2023-01-10T17:10:23;97264.28;;;11.44;69.26
48800;BME280;34611;47.964;7.982;2023-01-10T17:17:23;97261.69;;;11.44;69.37
48800;BME280;34611;47.964;7.982;2023-01-10T17:24:24;97242.50;;;11.45;69.12
48800;BME280;34611;47.964;7.982;2023-01-10T17:31:24;97238.25;;;11.44;69.34
48800;BME280;34611;47.964;7.982;2023-01-10T17:38:25;97249.50;;;11.44;69.16
48800;BME280;34611;47.964;7.982;2023-01-10T17:45:25;97240.88;;;11.44;69.26
48800;BME280;34611;47.964;7.982;2023-01-10T17:52:26;97238.25;;;11.44;69.12
48800;BME280;34611;47.964;7.982;2023-01-10T17:59:26;97224.41;;;11.43;69.26
48800;BME280;34611;47.964;7.982;2023-01-10T18:06:26;97219.19;;;11.43;69.19
48800;BME280;34611;47.964;7.982;2023-01-10T18:13:26;97219.19;;;11.43;69.31
48800;BME280;34611;47.964;7.982;2023-01-10T18:20:30;97233.06;;;11.44;69.28
48800;BME280;34611;47.964;7.982;2023-01-10T18:27:30;97219.19;;;11.43;69.27
48800;BME280;34611;47.964;7.982;2023-01-10T18:34:31;97220.03;;;11.44;69.18
48800;BME280;34611;47.964;7.982;2023-01-10T18:41:31;97223.47;;;11.44;68.91
48800;BME280;34611;47.964;7.982;2023-01-10T18:48:32;97225.25;;;11.44;69.25
48800;BME280;34611;47.964;7.982;2023-01-10T18:55:32;97210.56;;;11.43;69.08
48800;BME280;34611;47.964;7.982;2023-01-10T19:02:32;97216.47;;;11.45;69.14
48800;BME280;34611;47.964;7.982;2023-01-10T19:09:33;97195.75;;;11.43;69.11
48800;BME280;34611;47.964;7.982;2023-01-10T19:16:33;97194.94;;;11.43;69.10
48800;BME280;34611;47.964;7.982;2023-01-10T19:23:33;97190.44;;;11.45;69.29
48800;BME280;34611;47.964;7.982;2023-01-10T19:30:34;97175.91;;;11.42;69.25
48800;BME280;34611;47.964;7.982;2023-01-10T19:37:34;97165.38;;;11.44;69.16
48800;BME280;34611;47.964;7.982;2023-01-10T19:44:34;97148.09;;;11.43;69.36
48800;BME280;34611;47.964;7.982;2023-01-10T19:51:35;97148.09;;;11.43;69.10
48800;BME280;34611;47.964;7.982;2023-01-10T19:58:37;97135.06;;;11.43;69.29
48800;BME280;34611;47.964;7.982;2023-01-10T20:05:37;97138.50;;;11.43;69.06
48800;BME280;34611;47.964;7.982;2023-01-10T20:12:38;97132.47;;;11.43;69.25
48800;BME280;34611;47.964;7.982;2023-01-10T20:19:38;97133.28;;;11.43;69.34
48800;BME280;34611;47.964;7.982;2023-01-10T20:26:39;97123.84;;;11.42;69.15
48800;BME280;34611;47.964;7.982;2023-01-10T20:33:39;97124.66;;;11.43;69.30
48800;BME280;34611;47.964;7.982;2023-01-10T20:40:40;97126.44;;;11.42;69.10
48800;BME280;34611;47.964;7.982;2023-01-10T20:47:40;97129.88;;;11.43;69.28
48800;BME280;34611;47.964;7.982;2023-01-10T20:54:40;97127.25;;;11.43;69.18
48800;BME280;34611;47.964;7.982;2023-01-10T21:01:40;97106.44;;;11.43;69.20
48800;BME280;34611;47.964;7.982;2023-01-10T21:08:41;97120.28;;;11.43;69.06
48800;BME280;34611;47.964;7.982;2023-01-10T21:15:42;97109.03;;;11.43;69.24
48800;BME280;34611;47.964;7.982;2023-01-10T21:22:43;97119.44;;;11.43;69.18
48800;BME280;34611;47.964;7.982;2023-01-10T21:29:43;97119.44;;;11.43;69.32
48800;BME280;34611;47.964;7.982;2023-01-10T21:36:44;97116.97;;;11.41;69.22
48800;BME280;34611;47.964;7.982;2023-01-10T21:43:44;97118.63;;;11.42;69.38
48800;BME280;34611;47.964;7.982;2023-01-10T21:50:49;97114.25;;;11.43;69.21
48800;BME280;34611;47.964;7.982;2023-01-10T21:57:50;97107.41;;;11.42;69.23
48800;BME280;34611;47.964;7.982;2023-01-10T22:04:51;97095.22;;;11.42;69.18
48800;BME280;34611;47.964;7.982;2023-01-10T22:11:52;97093.41;;;11.43;69.20
48800;BME280;34611;47.964;7.982;2023-01-10T22:18:52;97094.25;;;11.43;69.20
48800;BME280;34611;47.964;7.982;2023-01-10T22:26:03;97085.72;;;11.41;69.11
48800;BME280;34611;47.964;7.982;2023-01-10T22:33:03;97090.81;;;11.43;69.36
48800;BME280;34611;47.964;7.982;2023-01-10T22:40:04;97086.44;;;11.43;69.39
48800;BME280;34611;47.964;7.982;2023-01-10T22:47:05;97069.28;;;11.41;69.13
48800;BME280;34611;47.964;7.982;2023-01-10T22:54:05;97070.97;;;11.42;69.26
48800;BME280;34611;47.964;7.982;2023-01-10T23:01:05;97069.19;;;11.42;69.22
48800;BME280;34611;47.964;7.982;2023-01-10T23:08:06;97072.72;;;11.41;69.17
48800;BME280;34611;47.964;7.982;2023-01-10T23:15:06;97071.78;;;11.42;69.19
48800;BME280;34611;47.964;7.982;2023-01-10T23:22:07;97058.88;;;11.41;69.39
48800;BME280;34611;47.964;7.982;2023-01-10T23:29:07;97049.16;;;11.43;69.39
48800;BME280;34611;47.964;7.982;2023-01-10T23:36:08;97049.28;;;11.41;69.17
48800;BME280;34611;47.964;7.982;2023-01-10T23:43:08;97050.97;;;11.42;69.08
48800;BME280;34611;47.964;7.982;2023-01-10T23:50:09;97036.28;;;11.41;69.34
48800;BME280;34611;47.964;7.982;2023-01-10T23:57:09;97038.06;;;11.41;69.47
